createdAt,value
2022-11-28T00:01:26.516Z,10.40
2022-11-28T00:03:53.684Z,10.30
2022-11-28T00:06:20.793Z,10.35
2022-11-28T00:08:48.150Z,10.49
2022-11-28T00:11:17.268Z,10.47
2022-11-28T00:13:44.902Z,10.66
2022-11-28T00:16:21.509Z,10.36
2022-11-28T00:18:49.725Z,10.40
2022-11-28T00:21:17.862Z,10.45
2022-11-28T00:23:45.983Z,10.33
2022-11-28T00:26:24.468Z,10.38
2022-11-28T00:28:51.536Z,10.39
2022-11-28T00:31:22.524Z,10.36
2022-11-28T00:33:49.592Z,10.18
2022-11-28T00:36:16.780Z,10.19
2022-11-28T00:38:43.984Z,10.26
2022-11-28T00:41:16.959Z,10.27
2022-11-28T00:43:44.907Z,10.21
2022-11-28T00:46:13.533Z,10.16
2022-11-28T00:48:41.034Z,10.33
2022-11-28T00:51:11.079Z,10.25
2022-11-28T00:53:40.580Z,10.12
2022-11-28T00:56:08.029Z,10.11
2022-11-28T00:58:38.050Z,9.99
2022-11-28T01:01:18.951Z,10.06
2022-11-28T01:03:47.194Z,10.12
2022-11-28T01:06:20.169Z,10.15
2022-11-28T01:08:46.867Z,10.02
2022-11-28T01:11:13.976Z,10.11
2022-11-28T01:13:41.056Z,10.18
2022-11-28T01:16:08.845Z,10.13
2022-11-28T01:18:35.897Z,10.14
2022-11-28T01:21:02.515Z,10.06
2022-11-28T01:23:29.144Z,10.23
2022-11-28T01:25:55.850Z,10.20
2022-11-28T01:28:22.636Z,10.41
2022-11-28T01:30:49.442Z,10.78
2022-11-28T01:33:16.247Z,10.66
2022-11-28T01:35:42.949Z,10.51
2022-11-28T01:38:09.549Z,10.75
2022-11-28T01:40:36.179Z,10.66
2022-11-28T01:43:02.781Z,10.70
2022-11-28T01:45:35.017Z,10.67
2022-11-28T01:48:03.980Z,10.43
2022-11-28T01:50:33.153Z,10.35
2022-11-28T01:53:04.785Z,10.52
2022-11-28T01:55:35.717Z,10.35
2022-11-28T01:58:02.356Z,10.29
2022-11-28T02:00:29.196Z,10.41
2022-11-28T02:03:10.565Z,10.26
2022-11-28T02:05:37.578Z,10.20
2022-11-28T02:08:04.496Z,10.14
2022-11-28T02:10:53.851Z,10.11
2022-11-28T02:13:40.994Z,10.15
2022-11-28T02:16:19.925Z,10.41
2022-11-28T02:19:08.626Z,10.50
2022-11-28T02:21:52.172Z,10.27
2022-11-28T02:24:22.004Z,10.46
2022-11-28T02:27:33.623Z,10.27
2022-11-28T02:30:02.921Z,10.49
2022-11-28T02:32:50.957Z,10.47
2022-11-28T02:35:33.500Z,10.29
2022-11-28T02:38:06.987Z,10.27
2022-11-28T02:40:52.442Z,10.36
2022-11-28T02:43:37.466Z,10.40
2022-11-28T02:46:16.806Z,10.35
2022-11-28T02:48:58.602Z,10.29
2022-11-28T02:51:37.984Z,10.33
2022-11-28T02:54:08.066Z,10.38
2022-11-28T02:56:34.912Z,10.53
2022-11-28T02:59:01.874Z,10.50
2022-11-28T03:01:36.977Z,10.61
2022-11-28T03:04:12.985Z,10.61
2022-11-28T03:06:51.680Z,10.56
2022-11-28T03:09:49.241Z,10.64
2022-11-28T03:12:36.053Z,10.68
2022-11-28T03:15:06.403Z,10.63
2022-11-28T03:17:33.213Z,10.77
2022-11-28T03:20:43.999Z,10.71
2022-11-28T03:23:21.440Z,10.55
2022-11-28T03:26:26.460Z,10.59
2022-11-28T03:29:00.737Z,10.55
2022-11-28T03:31:49.692Z,10.71
2022-11-28T03:34:20.502Z,10.55
2022-11-28T03:36:53.975Z,10.38
2022-11-28T03:39:24.570Z,10.29
2022-11-28T03:41:59.868Z,10.23
2022-11-28T03:44:30.846Z,10.27
2022-11-28T03:47:01.089Z,10.48
2022-11-28T03:49:33.750Z,10.57
2022-11-28T03:52:07.218Z,10.47
2022-11-28T03:55:09.305Z,10.41
2022-11-28T03:57:46.305Z,10.43
2022-11-28T04:00:14.317Z,10.55
2022-11-28T04:02:57.536Z,10.68
2022-11-28T04:05:26.835Z,10.62
2022-11-28T04:07:59.677Z,10.48
2022-11-28T04:10:45.205Z,10.47
2022-11-28T04:13:14.882Z,10.48
2022-11-28T04:15:59.904Z,10.30
2022-11-28T04:18:55.684Z,10.34
2022-11-28T04:21:51.187Z,10.40
2022-11-28T04:24:30.102Z,10.23
2022-11-28T04:27:05.092Z,10.37
2022-11-28T04:29:42.892Z,10.27
2022-11-28T04:32:12.252Z,10.38
2022-11-28T04:34:43.508Z,10.15
2022-11-28T04:37:14.485Z,10.10
2022-11-28T04:39:46.076Z,10.07
2022-11-28T04:42:20.852Z,10.01
2022-11-28T04:44:51.753Z,10.27
2022-11-28T04:47:18.943Z,10.17
2022-11-28T04:49:45.765Z,10.18
2022-11-28T04:52:26.372Z,10.06
2022-11-28T04:55:00.664Z,10.08
2022-11-28T04:57:33.770Z,10.17
2022-11-28T05:00:04.743Z,10.24
2022-11-28T05:02:32.505Z,9.94
2022-11-28T05:04:59.838Z,9.95
2022-11-28T05:07:26.806Z,9.65
2022-11-28T05:09:53.603Z,9.61
2022-11-28T05:12:20.482Z,9.61
2022-11-28T05:14:47.330Z,9.49
2022-11-28T05:17:13.993Z,9.42
2022-11-28T05:19:40.645Z,9.40
2022-11-28T05:22:07.331Z,9.39
2022-11-28T05:24:34.272Z,9.47
2022-11-28T05:27:01.069Z,9.45
2022-11-28T05:29:27.820Z,9.65
2022-11-28T05:31:54.803Z,9.64
2022-11-28T05:34:22.042Z,9.55
2022-11-28T05:36:56.533Z,9.51
2022-11-28T05:39:25.894Z,9.35
2022-11-28T05:41:57.174Z,9.30
2022-11-28T05:44:26.974Z,9.17
2022-11-28T05:46:54.288Z,9.15
2022-11-28T05:49:25.549Z,9.10
2022-11-28T05:51:52.281Z,8.83
2022-11-28T05:54:19.001Z,9.03
2022-11-28T05:56:45.778Z,9.02
2022-11-28T05:59:13.801Z,8.97
2022-11-28T06:01:40.667Z,8.92
2022-11-28T06:04:07.394Z,8.87
2022-11-28T06:06:35.718Z,8.89
2022-11-28T06:09:03.389Z,8.96
2022-11-28T06:11:31.675Z,8.91
2022-11-28T06:13:58.324Z,9.00
2022-11-28T06:16:27.695Z,8.78
2022-11-28T06:18:55.816Z,8.93
2022-11-28T06:21:23.453Z,9.02
2022-11-28T06:23:50.217Z,9.00
2022-11-28T06:26:19.840Z,9.03
2022-11-28T06:28:48.025Z,8.72
2022-11-28T06:31:28.463Z,8.61
2022-11-28T06:33:55.974Z,8.59
2022-11-28T06:36:22.821Z,8.29
2022-11-28T06:38:49.566Z,8.36
2022-11-28T06:41:19.575Z,8.19
2022-11-28T06:43:46.577Z,8.09
2022-11-28T06:46:16.402Z,8.03
2022-11-28T06:48:44.132Z,8.21
2022-11-28T06:51:11.682Z,8.27
2022-11-28T06:53:38.741Z,8.35
2022-11-28T06:56:07.448Z,8.21
2022-11-28T06:58:35.016Z,8.27
2022-11-28T07:01:11.950Z,8.16
2022-11-28T07:03:39.589Z,8.07
2022-11-28T07:06:07.296Z,8.10
2022-11-28T07:08:34.894Z,8.14
2022-11-28T07:11:11.969Z,8.31
2022-11-28T07:13:39.807Z,8.21
2022-11-28T07:16:07.538Z,7.90
2022-11-28T07:18:34.937Z,8.05
2022-11-28T07:21:01.975Z,8.06
2022-11-28T07:23:28.588Z,8.05
2022-11-28T07:26:03.622Z,8.11
2022-11-28T07:28:31.575Z,7.94
2022-11-28T07:31:11.083Z,7.98
2022-11-28T07:33:39.622Z,8.07
2022-11-28T07:36:10.865Z,7.94
2022-11-28T07:38:37.534Z,7.97
2022-11-28T07:41:09.679Z,7.93
2022-11-28T07:43:36.833Z,7.87
2022-11-28T07:46:06.752Z,7.88
2022-11-28T07:48:34.363Z,7.91
2022-11-28T07:51:06.189Z,7.88
2022-11-28T07:53:32.826Z,7.63
2022-11-28T07:56:07.858Z,7.74
2022-11-28T07:58:36.113Z,7.28
2022-11-28T08:01:13.474Z,7.57
2022-11-28T08:03:40.639Z,7.53
2022-11-28T08:06:08.542Z,7.66
2022-11-28T08:08:35.892Z,7.57
2022-11-28T08:11:04.861Z,7.57
2022-11-28T08:13:31.648Z,7.14
2022-11-28T08:15:58.541Z,7.49
2022-11-28T08:18:25.278Z,7.53
2022-11-28T08:20:51.964Z,7.45
2022-11-28T08:23:18.580Z,7.57
2022-11-28T08:25:45.397Z,7.39
2022-11-28T08:28:12.036Z,7.39
2022-11-28T08:30:39.111Z,7.45
2022-11-28T08:33:05.828Z,7.44
2022-11-28T08:35:32.519Z,7.30
2022-11-28T08:38:02.016Z,7.25
2022-11-28T08:40:29.231Z,7.35
2022-11-28T08:42:55.936Z,7.70
2022-11-28T08:45:22.662Z,7.73
2022-11-28T08:47:49.458Z,7.44
2022-11-28T08:50:16.527Z,7.33
2022-11-28T08:52:43.183Z,7.59
2022-11-28T08:55:10.145Z,7.40
2022-11-28T08:57:36.924Z,7.47
2022-11-28T09:00:04.480Z,7.66
2022-11-28T09:02:31.150Z,7.61
2022-11-28T09:04:57.795Z,7.76
2022-11-28T09:07:24.625Z,7.80
2022-11-28T09:09:51.365Z,7.91
2022-11-28T09:12:18.021Z,8.24
2022-11-28T09:14:44.908Z,8.15
2022-11-28T09:17:11.830Z,7.97
2022-11-28T09:19:39.136Z,8.33
2022-11-28T09:22:05.896Z,8.13
2022-11-28T09:24:32.565Z,7.98
2022-11-28T09:26:59.327Z,8.33
2022-11-28T09:29:26.883Z,8.33
2022-11-28T09:31:53.667Z,7.97
2022-11-28T09:34:20.480Z,8.11
2022-11-28T09:36:47.225Z,8.31
2022-11-28T09:39:14.026Z,8.16
2022-11-28T09:41:53.102Z,8.17
2022-11-28T09:44:25.200Z,8.29
2022-11-28T09:46:58.514Z,8.48
2022-11-28T09:49:41.083Z,8.44
2022-11-28T09:52:35.790Z,8.80
2022-11-28T09:55:18.546Z,8.78
2022-11-28T09:57:51.027Z,8.59
2022-11-28T10:00:26.909Z,8.80
2022-11-28T10:03:14.682Z,8.86
2022-11-28T10:06:00.741Z,9.05
2022-11-28T10:08:46.030Z,8.89
2022-11-28T10:11:39.032Z,8.95
2022-11-28T10:14:30.689Z,8.98
2022-11-28T10:17:34.646Z,9.06
2022-11-28T10:20:05.218Z,9.19
2022-11-28T10:22:40.611Z,9.21
2022-11-28T10:25:17.281Z,9.13
2022-11-28T10:27:44.499Z,8.91
2022-11-28T10:30:34.729Z,9.45
2022-11-28T10:33:14.156Z,9.19
2022-11-28T10:35:53.905Z,9.34
2022-11-28T10:38:26.663Z,9.43
2022-11-28T10:41:00.219Z,9.62
2022-11-28T10:44:24.153Z,9.72
2022-11-28T10:46:51.445Z,9.78
2022-11-28T10:49:34.269Z,9.69
2022-11-28T10:52:21.821Z,9.93
2022-11-28T10:55:15.513Z,10.00
2022-11-28T10:57:56.056Z,10.15
2022-11-28T11:00:23.136Z,10.11
2022-11-28T11:02:57.711Z,10.12
2022-11-28T11:05:26.190Z,10.08
2022-11-28T11:07:59.479Z,10.15
2022-11-28T11:10:42.187Z,10.00
2022-11-28T11:13:16.398Z,10.02
2022-11-28T11:15:46.551Z,10.04
2022-11-28T11:18:25.880Z,10.38
2022-11-28T11:20:52.808Z,10.38
2022-11-28T11:23:22.275Z,10.44
2022-11-28T11:25:58.388Z,10.32
2022-11-28T11:28:46.366Z,10.57
2022-11-28T11:31:24.781Z,10.70
2022-11-28T11:34:01.063Z,10.77
2022-11-28T11:36:34.302Z,10.93
2022-11-28T11:39:10.846Z,11.02
2022-11-28T11:41:40.091Z,10.86
2022-11-28T11:44:15.806Z,11.03
2022-11-28T11:47:06.826Z,10.84
2022-11-28T11:49:33.567Z,11.07
2022-11-28T11:52:23.016Z,10.77
2022-11-28T11:54:58.938Z,11.19
2022-11-28T11:57:39.542Z,11.25
2022-11-28T12:00:07.152Z,11.26
2022-11-28T12:02:37.240Z,11.18
2022-11-28T12:05:16.933Z,11.07
2022-11-28T12:07:56.069Z,11.25
2022-11-28T12:10:26.699Z,11.32
2022-11-28T12:12:53.880Z,11.13
2022-11-28T12:15:51.179Z,11.44
2022-11-28T12:18:23.780Z,11.39
2022-11-28T12:20:59.741Z,11.42
2022-11-28T12:23:38.418Z,11.37
2022-11-28T12:26:28.663Z,11.24
2022-11-28T12:29:24.174Z,11.27
2022-11-28T12:32:12.635Z,11.35
2022-11-28T12:34:58.134Z,11.48
2022-11-28T12:41:03.933Z,11.50
2022-11-28T12:44:25.194Z,11.39
2022-11-28T12:47:30.552Z,11.31
2022-11-28T12:50:20.343Z,11.40
2022-11-28T12:52:56.432Z,11.45
2022-11-28T12:55:26.357Z,11.40
2022-11-28T12:58:12.193Z,11.42
2022-11-28T13:01:08.206Z,11.12
2022-11-28T13:03:35.112Z,11.43
2022-11-28T13:06:08.017Z,11.45
2022-11-28T13:08:48.198Z,11.41
2022-11-28T13:11:18.713Z,11.57
2022-11-28T13:14:09.836Z,11.58
2022-11-28T13:17:11.366Z,11.68
2022-11-28T13:19:51.709Z,11.68
2022-11-28T13:22:29.037Z,11.73
2022-11-28T13:25:17.374Z,11.79
2022-11-28T13:27:54.918Z,11.46
2022-11-28T13:30:31.301Z,11.59
2022-11-28T13:33:24.224Z,11.58
2022-11-28T13:35:52.398Z,11.46
2022-11-28T13:38:36.210Z,11.44
2022-11-28T13:41:28.807Z,11.33
2022-11-28T13:44:15.635Z,11.17
2022-11-28T13:46:44.773Z,11.42
2022-11-28T13:49:25.709Z,11.38
2022-11-28T13:52:17.663Z,11.30
2022-11-28T13:54:51.749Z,11.19
2022-11-28T13:57:35.908Z,11.27
2022-11-28T14:00:22.880Z,11.30
2022-11-28T14:03:00.256Z,11.34
2022-11-28T14:05:41.724Z,11.23
2022-11-28T14:08:09.350Z,11.16
2022-11-28T14:10:48.743Z,11.12
2022-11-28T14:13:40.860Z,11.06
2022-11-28T14:16:45.413Z,11.01
2022-11-28T14:19:25.607Z,10.95
2022-11-28T14:22:04.546Z,10.93
2022-11-28T14:24:52.585Z,10.91
2022-11-28T14:27:31.591Z,10.81
2022-11-28T14:29:59.587Z,10.84
2022-11-28T14:32:41.604Z,10.77
2022-11-28T14:35:55.802Z,10.64
2022-11-28T14:38:42.535Z,10.66
2022-11-28T14:41:15.269Z,10.27
2022-11-28T14:43:46.370Z,10.42
2022-11-28T14:46:16.102Z,10.31
2022-11-28T14:49:02.747Z,10.20
2022-11-28T14:51:47.724Z,10.17
2022-11-28T14:54:23.355Z,10.16
2022-11-28T14:56:55.288Z,10.07
2022-11-28T14:59:31.476Z,9.67
2022-11-28T15:02:13.247Z,9.95
2022-11-28T15:05:13.866Z,9.91
2022-11-28T15:07:49.635Z,9.81
2022-11-28T15:10:41.381Z,9.71
2022-11-28T15:13:48.162Z,9.41
2022-11-28T15:16:17.461Z,9.43
2022-11-28T15:18:50.724Z,9.56
2022-11-28T15:21:18.221Z,9.56
2022-11-28T15:23:46.935Z,9.25
2022-11-28T15:26:28.450Z,9.47
2022-11-28T15:29:26.711Z,9.33
2022-11-28T15:31:55.772Z,9.16
2022-11-28T15:34:31.811Z,8.73
2022-11-28T15:37:01.061Z,9.03
2022-11-28T15:39:35.196Z,8.74
2022-11-28T15:42:04.899Z,8.69
2022-11-28T15:44:31.816Z,8.61
2022-11-28T15:46:58.784Z,8.59
2022-11-28T15:49:31.977Z,8.83
2022-11-28T15:52:02.785Z,8.90
2022-11-28T15:54:41.265Z,8.70
2022-11-28T15:57:28.512Z,8.62
2022-11-28T15:59:56.607Z,8.34
2022-11-28T16:02:31.894Z,8.52
2022-11-28T16:05:08.908Z,8.32
2022-11-28T16:07:41.393Z,8.25
2022-11-28T16:10:17.565Z,8.41
2022-11-28T16:12:44.845Z,8.12
2022-11-28T16:15:18.397Z,8.30
2022-11-28T16:17:45.183Z,7.97
2022-11-28T16:20:25.154Z,8.06
2022-11-28T16:22:59.579Z,8.03
2022-11-28T16:25:27.459Z,8.35
2022-11-28T16:27:57.337Z,7.88
2022-11-28T16:30:48.378Z,8.05
2022-11-28T16:33:38.189Z,8.06
2022-11-28T16:36:19.435Z,7.93
2022-11-28T16:38:48.346Z,7.82
2022-11-28T16:41:25.758Z,7.73
2022-11-28T16:44:00.337Z,7.78
2022-11-28T16:46:35.821Z,7.62
2022-11-28T16:49:03.443Z,7.49
2022-11-28T16:51:33.647Z,7.55
2022-11-28T16:54:21.286Z,7.80
2022-11-28T16:56:48.069Z,7.79
2022-11-28T16:59:20.341Z,7.74
2022-11-28T17:01:51.853Z,7.63
2022-11-28T17:04:25.118Z,7.64
2022-11-28T17:06:52.813Z,7.77
2022-11-28T17:09:19.964Z,7.59
2022-11-28T17:12:25.078Z,7.50
2022-11-28T17:14:52.014Z,7.42
2022-11-28T17:17:20.604Z,7.40
2022-11-28T17:19:47.496Z,6.86
2022-11-28T17:22:19.898Z,6.93
2022-11-28T17:24:48.036Z,6.98
2022-11-28T17:27:15.482Z,6.88
2022-11-28T17:29:42.787Z,6.81
2022-11-28T17:32:14.003Z,7.08
2022-11-28T17:34:42.337Z,7.14
2022-11-28T17:37:10.165Z,7.01
2022-11-28T17:39:36.913Z,7.07
2022-11-28T17:42:04.714Z,7.04
2022-11-28T17:44:36.431Z,6.55
2022-11-28T17:47:03.945Z,6.76
2022-11-28T17:49:31.189Z,6.65
2022-11-28T17:51:58.346Z,6.89
2022-11-28T17:54:26.707Z,6.54
2022-11-28T17:56:54.512Z,6.51
2022-11-28T17:59:23.129Z,6.62
2022-11-28T18:01:50.200Z,6.71
2022-11-28T18:04:17.293Z,6.80
2022-11-28T18:06:45.951Z,6.82
2022-11-28T18:09:13.844Z,6.61
2022-11-28T18:11:41.624Z,6.71
2022-11-28T18:14:08.921Z,6.45
2022-11-28T18:16:36.386Z,6.20
2022-11-28T18:19:04.296Z,6.16
2022-11-28T18:21:31.986Z,6.52
2022-11-28T18:23:58.634Z,6.19
2022-11-28T18:26:26.618Z,6.21
2022-11-28T18:28:54.120Z,6.00
2022-11-28T18:31:24.893Z,5.99
2022-11-28T18:33:57.410Z,5.99
2022-11-28T18:36:29.214Z,5.82
2022-11-28T18:38:57.935Z,5.90
2022-11-28T18:41:24.744Z,5.99
2022-11-28T18:44:02.592Z,5.64
2022-11-28T18:46:30.318Z,5.73
2022-11-28T18:48:57.604Z,6.06
2022-11-28T18:51:26.960Z,6.02
2022-11-28T18:53:56.959Z,6.27
2022-11-28T18:56:25.488Z,6.28
2022-11-28T18:58:53.742Z,5.96
2022-11-28T19:01:25.112Z,6.24
2022-11-28T19:03:54.405Z,6.23
2022-11-28T19:06:22.442Z,6.16
2022-11-28T19:08:54.166Z,5.95
2022-11-28T19:11:21.200Z,5.95
2022-11-28T19:13:48.862Z,5.75
2022-11-28T19:16:21.258Z,6.11
2022-11-28T19:18:49.137Z,5.73
2022-11-28T19:21:18.329Z,5.78
2022-11-28T19:23:47.241Z,5.87
2022-11-28T19:26:16.673Z,5.95
2022-11-28T19:28:43.733Z,5.66
2022-11-28T19:31:16.381Z,6.09
2022-11-28T19:33:43.674Z,5.71
2022-11-28T19:36:12.868Z,5.82
2022-11-28T19:38:40.593Z,5.83
2022-11-28T19:41:09.388Z,5.66
2022-11-28T19:43:36.506Z,5.45
2022-11-28T19:46:03.335Z,5.28
2022-11-28T19:48:32.355Z,5.44
2022-11-28T19:50:59.170Z,5.30
2022-11-28T19:53:26.273Z,5.56
2022-11-28T19:55:54.109Z,5.53
2022-11-28T19:58:21.521Z,5.16
2022-11-28T20:00:48.422Z,5.16
2022-11-28T20:03:15.125Z,5.53
2022-11-28T20:05:42.406Z,5.62
2022-11-28T20:08:09.148Z,5.24
2022-11-28T20:10:40.124Z,5.54
2022-11-28T20:13:07.007Z,5.75
2022-11-28T20:15:37.272Z,5.63
2022-11-28T20:18:03.995Z,5.43
2022-11-28T20:20:30.783Z,5.74
2022-11-28T20:22:57.649Z,5.59
2022-11-28T20:25:24.258Z,5.70
2022-11-28T20:27:51.387Z,5.60
2022-11-28T20:30:18.676Z,5.65
2022-11-28T20:32:45.428Z,5.64
2022-11-28T20:35:12.285Z,5.55
2022-11-28T20:37:39.395Z,5.19
2022-11-28T20:40:07.086Z,5.29
2022-11-28T20:42:39.357Z,5.16
2022-11-28T20:45:07.212Z,5.09
2022-11-28T20:47:34.902Z,5.21
2022-11-28T20:50:02.427Z,5.31
2022-11-28T20:52:29.185Z,5.36
2022-11-28T20:54:56.006Z,5.27
2022-11-28T20:57:22.785Z,5.10
2022-11-28T20:59:49.596Z,5.06
2022-11-28T21:02:16.333Z,5.15
2022-11-28T21:04:43.049Z,5.26
2022-11-28T21:07:09.706Z,5.32
2022-11-28T21:09:36.361Z,5.31
2022-11-28T21:12:03.007Z,5.16
2022-11-28T21:14:29.706Z,5.27
2022-11-28T21:16:57.710Z,5.28
2022-11-28T21:19:24.788Z,5.55
2022-11-28T21:21:51.405Z,5.56
2022-11-28T21:24:18.227Z,5.54
2022-11-28T21:26:51.078Z,5.16
2022-11-28T21:29:20.067Z,5.54
2022-11-28T21:31:47.049Z,5.48
2022-11-28T21:34:15.687Z,5.41
2022-11-28T21:36:43.604Z,5.31
2022-11-28T21:39:14.269Z,5.29
2022-11-28T21:41:40.945Z,5.48
2022-11-28T21:44:07.809Z,5.38
2022-11-28T21:46:34.561Z,5.23
2022-11-28T21:49:01.980Z,5.10
2022-11-28T21:51:28.923Z,5.12
2022-11-28T21:53:57.766Z,5.13
2022-11-28T21:56:25.054Z,4.98
2022-11-28T21:58:52.236Z,4.79
2022-11-28T22:01:20.425Z,4.69
2022-11-28T22:03:47.457Z,4.61
2022-11-28T22:06:21.395Z,4.62
2022-11-28T22:08:48.827Z,4.54
2022-11-28T22:11:16.082Z,4.61
2022-11-28T22:13:45.442Z,4.53
2022-11-28T22:16:24.929Z,4.42
2022-11-28T22:18:53.863Z,4.36
2022-11-28T22:21:50.576Z,4.41
2022-11-28T22:24:08.799Z,4.46
2022-11-28T22:26:35.485Z,4.47
2022-11-28T22:29:04.160Z,4.43
2022-11-28T22:31:32.131Z,4.33
2022-11-28T22:33:59.299Z,4.17
2022-11-28T22:36:26.054Z,4.37
2022-11-28T22:38:57.537Z,4.34
2022-11-28T22:41:28.829Z,4.37
2022-11-28T22:43:57.984Z,4.29
2022-11-28T22:46:24.945Z,4.25
2022-11-28T22:48:52.105Z,4.09
2022-11-28T22:51:25.053Z,4.11
2022-11-28T22:53:59.744Z,4.27
2022-11-28T22:56:27.922Z,4.22
2022-11-28T22:58:54.956Z,4.06
2022-11-28T23:01:24.425Z,4.16
2022-11-28T23:03:52.045Z,4.12
2022-11-28T23:06:22.274Z,4.21
2022-11-28T23:08:49.866Z,4.19
2022-11-28T23:11:19.853Z,4.33
2022-11-28T23:13:50.644Z,4.38
2022-11-28T23:16:19.284Z,4.41
2022-11-28T23:18:47.968Z,4.39
2022-11-28T23:21:15.547Z,4.35
2022-11-28T23:23:44.192Z,4.36
2022-11-28T23:26:13.589Z,4.27
2022-11-28T23:28:40.971Z,4.31
2022-11-28T23:31:14.648Z,4.39
2022-11-28T23:33:42.084Z,4.24
2022-11-28T23:36:21.424Z,4.38
2022-11-28T23:38:50.461Z,4.44
2022-11-28T23:41:17.483Z,4.41
2022-11-28T23:43:44.558Z,4.38
2022-11-28T23:46:12.503Z,4.33
2022-11-28T23:48:39.567Z,4.41
2022-11-28T23:51:07.018Z,4.38
2022-11-28T23:53:34.438Z,4.29
2022-11-28T23:56:06.829Z,4.31
2022-11-28T23:58:36.409Z,4.42
